sensor_id;sensor_type;location;lat;lon;timestamp;P1;durP1;ratioP1;P2;durP2;ratioP2
22080;SDS011;11207;59.512;18.050;2022-09-16T00:01:14;2.73;;;1.50;;
22080;SDS011;11207;59.512;18.050;2022-09-16T00:03:41;1.30;;;1.30;;
22080;SDS011;11207;59.512;18.050;2022-09-16T00:06:18;1.80;;;1.30;;
22080;SDS011;11207;59.512;18.050;2022-09-16T00:08:49;1.30;;;1.30;;
22080;SDS011;11207;59.512;18.050;2022-09-16T00:11:16;1.30;;;1.30;;
22080;SDS011;11207;59.512;18.050;2022-09-16T00:13:43;1.57;;;1.40;;
22080;SDS011;11207;59.512;18.050;2022-09-16T00:16:11;2.20;;;1.50;;
22080;SDS011;11207;59.512;18.050;2022-09-16T00:18:41;1.60;;;1.50;;
22080;SDS011;11207;59.512;18.050;2022-09-16T00:21:09;2.53;;;1.53;;
22080;SDS011;11207;59.512;18.050;2022-09-16T00:23:35;1.30;;;1.30;;
22080;SDS011;11207;59.512;18.050;2022-09-16T00:26:01;2.87;;;1.47;;
22080;SDS011;11207;59.512;18.050;2022-09-16T00:28:28;5.03;;;1.57;;
22080;SDS011;11207;59.512;18.050;2022-09-16T00:30:57;1.53;;;1.53;;
22080;SDS011;11207;59.512;18.050;2022-09-16T00:33:25;1.67;;;1.57;;
22080;SDS011;11207;59.512;18.050;2022-09-16T00:35:51;1.43;;;1.43;;
22080;SDS011;11207;59.512;18.050;2022-09-16T00:38:27;1.60;;;1.50;;
22080;SDS011;11207;59.512;18.050;2022-09-16T00:40:53;1.70;;;1.57;;
22080;SDS011;11207;59.512;18.050;2022-09-16T00:43:18;1.40;;;1.40;;
22080;SDS011;11207;59.512;18.050;2022-09-16T00:45:45;1.50;;;1.50;;
22080;SDS011;11207;59.512;18.050;2022-09-16T00:48:15;1.60;;;1.50;;
22080;SDS011;11207;59.512;18.050;2022-09-16T00:53:28;1.40;;;1.40;;
22080;SDS011;11207;59.512;18.050;2022-09-16T00:55:58;1.33;;;1.33;;
22080;SDS011;11207;59.512;18.050;2022-09-16T00:58:32;1.40;;;1.40;;
22080;SDS011;11207;59.512;18.050;2022-09-16T01:01:19;1.40;;;1.40;;
22080;SDS011;11207;59.512;18.050;2022-09-16T01:03:47;1.40;;;1.30;;
22080;SDS011;11207;59.512;18.050;2022-09-16T01:06:17;1.50;;;1.47;;
22080;SDS011;11207;59.512;18.050;2022-09-16T01:08:44;1.57;;;1.47;;
22080;SDS011;11207;59.512;18.050;2022-09-16T01:11:10;2.33;;;1.50;;
22080;SDS011;11207;59.512;18.050;2022-09-16T01:13:36;1.40;;;1.30;;
22080;SDS011;11207;59.512;18.050;2022-09-16T01:27:32;2.83;;;1.50;;
22080;SDS011;11207;59.512;18.050;2022-09-16T01:30:37;1.40;;;1.40;;
22080;SDS011;11207;59.512;18.050;2022-09-16T01:33:09;1.30;;;1.30;;
22080;SDS011;11207;59.512;18.050;2022-09-16T01:47:02;1.80;;;1.70;;
22080;SDS011;11207;59.512;18.050;2022-09-16T01:49:38;2.03;;;1.70;;
22080;SDS011;11207;59.512;18.050;2022-09-16T01:55:37;1.40;;;1.40;;
22080;SDS011;11207;59.512;18.050;2022-09-16T01:58:25;2.17;;;1.60;;
22080;SDS011;11207;59.512;18.050;2022-09-16T02:00:58;1.57;;;1.50;;
22080;SDS011;11207;59.512;18.050;2022-09-16T02:03:36;2.80;;;1.63;;
22080;SDS011;11207;59.512;18.050;2022-09-16T02:06:07;1.53;;;1.43;;
22080;SDS011;11207;59.512;18.050;2022-09-16T02:08:38;1.73;;;1.63;;
22080;SDS011;11207;59.512;18.050;2022-09-16T02:11:08;2.37;;;1.70;;
22080;SDS011;11207;59.512;18.050;2022-09-16T02:13:38;2.40;;;1.70;;
22080;SDS011;11207;59.512;18.050;2022-09-16T02:16:12;2.30;;;2.10;;
22080;SDS011;11207;59.512;18.050;2022-09-16T02:18:46;2.03;;;1.93;;
22080;SDS011;11207;59.512;18.050;2022-09-16T02:21:17;2.10;;;1.90;;
22080;SDS011;11207;59.512;18.050;2022-09-16T02:23:48;1.90;;;1.80;;
22080;SDS011;11207;59.512;18.050;2022-09-16T02:26:17;1.83;;;1.73;;
22080;SDS011;11207;59.512;18.050;2022-09-16T02:28:48;2.50;;;2.30;;
22080;SDS011;11207;59.512;18.050;2022-09-16T02:31:17;2.63;;;2.37;;
22080;SDS011;11207;59.512;18.050;2022-09-16T02:33:48;3.13;;;2.40;;
22080;SDS011;11207;59.512;18.050;2022-09-16T02:36:21;2.87;;;2.67;;
22080;SDS011;11207;59.512;18.050;2022-09-16T02:38:50;3.40;;;3.10;;
22080;SDS011;11207;59.512;18.050;2022-09-16T02:41:25;3.97;;;3.40;;
22080;SDS011;11207;59.512;18.050;2022-09-16T02:43:50;4.13;;;3.33;;
22080;SDS011;11207;59.512;18.050;2022-09-16T02:46:32;3.73;;;3.40;;
22080;SDS011;11207;59.512;18.050;2022-09-16T02:54:33;3.90;;;3.37;;
22080;SDS011;11207;59.512;18.050;2022-09-16T02:57:06;3.50;;;2.83;;
22080;SDS011;11207;59.512;18.050;2022-09-16T02:59:33;4.03;;;3.00;;
22080;SDS011;11207;59.512;18.050;2022-09-16T03:01:59;3.83;;;3.03;;
22080;SDS011;11207;59.512;18.050;2022-09-16T03:04:27;3.40;;;3.10;;
22080;SDS011;11207;59.512;18.050;2022-09-16T03:06:54;3.37;;;3.07;;
22080;SDS011;11207;59.512;18.050;2022-09-16T03:09:19;4.00;;;3.10;;
22080;SDS011;11207;59.512;18.050;2022-09-16T03:14:27;5.07;;;3.43;;
22080;SDS011;11207;59.512;18.050;2022-09-16T03:17:19;3.80;;;2.90;;
22080;SDS011;11207;59.512;18.050;2022-09-16T03:19:58;4.07;;;3.47;;
22080;SDS011;11207;59.512;18.050;2022-09-16T03:22:48;3.13;;;2.83;;
22080;SDS011;11207;59.512;18.050;2022-09-16T03:30:53;3.47;;;3.17;;
22080;SDS011;11207;59.512;18.050;2022-09-16T03:33:28;3.40;;;3.10;;
22080;SDS011;11207;59.512;18.050;2022-09-16T03:36:06;3.30;;;3.07;;
22080;SDS011;11207;59.512;18.050;2022-09-16T03:38:34;5.43;;;3.20;;
22080;SDS011;11207;59.512;18.050;2022-09-16T03:41:02;3.40;;;3.10;;
22080;SDS011;11207;59.512;18.050;2022-09-16T03:43:30;4.70;;;3.17;;
22080;SDS011;11207;59.512;18.050;2022-09-16T03:45:55;3.50;;;3.20;;
22080;SDS011;11207;59.512;18.050;2022-09-16T03:48:21;3.37;;;2.83;;
22080;SDS011;11207;59.512;18.050;2022-09-16T03:50:47;3.53;;;3.20;;
22080;SDS011;11207;59.512;18.050;2022-09-16T03:53:12;3.57;;;3.20;;
22080;SDS011;11207;59.512;18.050;2022-09-16T03:55:38;3.60;;;3.00;;
22080;SDS011;11207;59.512;18.050;2022-09-16T03:58:04;3.83;;;3.30;;
22080;SDS011;11207;59.512;18.050;2022-09-16T04:00:29;5.67;;;3.50;;
22080;SDS011;11207;59.512;18.050;2022-09-16T04:02:55;3.50;;;3.20;;
22080;SDS011;11207;59.512;18.050;2022-09-16T04:05:21;3.50;;;3.20;;
22080;SDS011;11207;59.512;18.050;2022-09-16T04:07:47;3.67;;;3.33;;
22080;SDS011;11207;59.512;18.050;2022-09-16T04:10:14;3.77;;;3.30;;
22080;SDS011;11207;59.512;18.050;2022-09-16T04:12:40;5.03;;;3.13;;
22080;SDS011;11207;59.512;18.050;2022-09-16T04:15:05;3.33;;;3.00;;
22080;SDS011;11207;59.512;18.050;2022-09-16T04:17:31;4.57;;;3.33;;
22080;SDS011;11207;59.512;18.050;2022-09-16T04:19:57;3.40;;;3.20;;
22080;SDS011;11207;59.512;18.050;2022-09-16T04:22:23;4.17;;;3.50;;
22080;SDS011;11207;59.512;18.050;2022-09-16T04:24:51;3.77;;;3.17;;
22080;SDS011;11207;59.512;18.050;2022-09-16T04:27:17;3.63;;;3.33;;
22080;SDS011;11207;59.512;18.050;2022-09-16T04:29:43;3.87;;;3.33;;
22080;SDS011;11207;59.512;18.050;2022-09-16T04:32:09;3.63;;;3.30;;
22080;SDS011;11207;59.512;18.050;2022-09-16T04:34:34;4.23;;;3.83;;
22080;SDS011;11207;59.512;18.050;2022-09-16T04:37:00;3.57;;;3.27;;
22080;SDS011;11207;59.512;18.050;2022-09-16T04:39:25;3.57;;;3.27;;
22080;SDS011;11207;59.512;18.050;2022-09-16T04:41:51;4.30;;;3.80;;
22080;SDS011;11207;59.512;18.050;2022-09-16T04:44:17;3.30;;;3.10;;
22080;SDS011;11207;59.512;18.050;2022-09-16T04:46:42;11.23;;;3.40;;
22080;SDS011;11207;59.512;18.050;2022-09-16T04:49:08;3.87;;;3.53;;
22080;SDS011;11207;59.512;18.050;2022-09-16T04:51:33;4.10;;;3.70;;
22080;SDS011;11207;59.512;18.050;2022-09-16T04:53:59;3.90;;;3.50;;
22080;SDS011;11207;59.512;18.050;2022-09-16T04:56:26;4.13;;;3.50;;
22080;SDS011;11207;59.512;18.050;2022-09-16T04:58:54;4.43;;;3.50;;
22080;SDS011;11207;59.512;18.050;2022-09-16T05:01:26;3.33;;;3.03;;
22080;SDS011;11207;59.512;18.050;2022-09-16T05:03:57;3.60;;;3.30;;
22080;SDS011;11207;59.512;18.050;2022-09-16T05:06:26;3.93;;;3.20;;
22080;SDS011;11207;59.512;18.050;2022-09-16T05:08:57;3.83;;;3.37;;
22080;SDS011;11207;59.512;18.050;2022-09-16T05:11:25;4.63;;;3.20;;
22080;SDS011;11207;59.512;18.050;2022-09-16T05:13:59;3.63;;;3.30;;
22080;SDS011;11207;59.512;18.050;2022-09-16T05:16:27;3.37;;;3.07;;
22080;SDS011;11207;59.512;18.050;2022-09-16T05:18:54;3.17;;;2.80;;
22080;SDS011;11207;59.512;18.050;2022-09-16T05:21:21;3.33;;;3.03;;
22080;SDS011;11207;59.512;18.050;2022-09-16T05:23:49;4.13;;;3.20;;
22080;SDS011;11207;59.512;18.050;2022-09-16T05:26:25;4.27;;;2.70;;
22080;SDS011;11207;59.512;18.050;2022-09-16T05:28:52;5.03;;;3.13;;
22080;SDS011;11207;59.512;18.050;2022-09-16T05:31:19;2.97;;;2.70;;
22080;SDS011;11207;59.512;18.050;2022-09-16T05:33:52;3.10;;;2.90;;
22080;SDS011;11207;59.512;18.050;2022-09-16T05:36:18;3.10;;;2.80;;
22080;SDS011;11207;59.512;18.050;2022-09-16T05:38:44;2.97;;;2.67;;
22080;SDS011;11207;59.512;18.050;2022-09-16T05:41:10;5.17;;;3.00;;
22080;SDS011;11207;59.512;18.050;2022-09-16T05:43:36;3.10;;;2.80;;
22080;SDS011;11207;59.512;18.050;2022-09-16T05:46:03;3.20;;;2.90;;
22080;SDS011;11207;59.512;18.050;2022-09-16T05:48:30;4.33;;;3.00;;
22080;SDS011;11207;59.512;18.050;2022-09-16T05:50:57;2.90;;;2.70;;
22080;SDS011;11207;59.512;18.050;2022-09-16T05:53:25;2.90;;;2.70;;
22080;SDS011;11207;59.512;18.050;2022-09-16T05:56:02;4.47;;;2.67;;
22080;SDS011;11207;59.512;18.050;2022-09-16T05:58:35;3.30;;;2.80;;
22080;SDS011;11207;59.512;18.050;2022-09-16T06:01:02;4.80;;;2.67;;
22080;SDS011;11207;59.512;18.050;2022-09-16T06:03:31;3.10;;;2.80;;
22080;SDS011;11207;59.512;18.050;2022-09-16T06:06:44;2.20;;;2.00;;
22080;SDS011;11207;59.512;18.050;2022-09-16T06:08:48;3.83;;;2.30;;
22080;SDS011;11207;59.512;18.050;2022-09-16T06:11:15;3.37;;;2.60;;
22080;SDS011;11207;59.512;18.050;2022-09-16T06:13:41;2.50;;;2.30;;
22080;SDS011;11207;59.512;18.050;2022-09-16T06:16:07;2.47;;;2.27;;
22080;SDS011;11207;59.512;18.050;2022-09-16T06:18:34;2.63;;;2.27;;
22080;SDS011;11207;59.512;18.050;2022-09-16T06:21:05;3.83;;;2.90;;
22080;SDS011;11207;59.512;18.050;2022-09-16T06:23:32;3.77;;;3.00;;
22080;SDS011;11207;59.512;18.050;2022-09-16T06:25:59;2.47;;;2.27;;
22080;SDS011;11207;59.512;18.050;2022-09-16T06:28:26;2.00;;;1.90;;
22080;SDS011;11207;59.512;18.050;2022-09-16T06:31:03;2.27;;;2.10;;
22080;SDS011;11207;59.512;18.050;2022-09-16T06:33:33;2.27;;;2.10;;
22080;SDS011;11207;59.512;18.050;2022-09-16T06:36:06;2.03;;;1.93;;
22080;SDS011;11207;59.512;18.050;2022-09-16T06:38:37;2.30;;;2.10;;
22080;SDS011;11207;59.512;18.050;2022-09-16T06:41:04;2.00;;;1.90;;
22080;SDS011;11207;59.512;18.050;2022-09-16T06:43:31;2.00;;;1.90;;
22080;SDS011;11207;59.512;18.050;2022-09-16T06:45:58;2.10;;;1.90;;
22080;SDS011;11207;59.512;18.050;2022-09-16T06:48:24;2.47;;;2.27;;
22080;SDS011;11207;59.512;18.050;2022-09-16T06:50:58;2.10;;;1.90;;
22080;SDS011;11207;59.512;18.050;2022-09-16T06:53:24;1.90;;;1.80;;
22080;SDS011;11207;59.512;18.050;2022-09-16T06:55:50;1.83;;;1.73;;
22080;SDS011;11207;59.512;18.050;2022-09-16T06:58:16;2.67;;;2.07;;
22080;SDS011;11207;59.512;18.050;2022-09-16T07:00:41;3.03;;;1.70;;
22080;SDS011;11207;59.512;18.050;2022-09-16T07:03:07;1.70;;;1.60;;
22080;SDS011;11207;59.512;18.050;2022-09-16T07:05:32;1.97;;;1.70;;
22080;SDS011;11207;59.512;18.050;2022-09-16T07:07:58;1.80;;;1.70;;
22080;SDS011;11207;59.512;18.050;2022-09-16T07:10:24;2.73;;;1.50;;
22080;SDS011;11207;59.512;18.050;2022-09-16T07:12:50;1.60;;;1.50;;
22080;SDS011;11207;59.512;18.050;2022-09-16T07:15:16;3.70;;;1.80;;
22080;SDS011;11207;59.512;18.050;2022-09-16T07:17:41;3.20;;;1.80;;
22080;SDS011;11207;59.512;18.050;2022-09-16T07:20:07;1.90;;;1.80;;
22080;SDS011;11207;59.512;18.050;2022-09-16T07:22:33;2.00;;;1.70;;
22080;SDS011;11207;59.512;18.050;2022-09-16T07:24:59;1.90;;;1.60;;
22080;SDS011;11207;59.512;18.050;2022-09-16T07:27:25;2.10;;;1.43;;
22080;SDS011;11207;59.512;18.050;2022-09-16T07:29:51;1.70;;;1.60;;
22080;SDS011;11207;59.512;18.050;2022-09-16T07:32:18;2.80;;;2.00;;
22080;SDS011;11207;59.512;18.050;2022-09-16T07:34:43;4.47;;;1.93;;
22080;SDS011;11207;59.512;18.050;2022-09-16T07:37:09;2.00;;;1.90;;
22080;SDS011;11207;59.512;18.050;2022-09-16T07:39:36;1.97;;;1.87;;
22080;SDS011;11207;59.512;18.050;2022-09-16T07:42:02;1.70;;;1.60;;
22080;SDS011;11207;59.512;18.050;2022-09-16T07:44:28;1.80;;;1.70;;
22080;SDS011;11207;59.512;18.050;2022-09-16T07:46:54;2.07;;;1.90;;
22080;SDS011;11207;59.512;18.050;2022-09-16T07:49:19;1.77;;;1.67;;
22080;SDS011;11207;59.512;18.050;2022-09-16T07:51:45;2.40;;;1.80;;
22080;SDS011;11207;59.512;18.050;2022-09-16T07:54:12;1.93;;;1.83;;
22080;SDS011;11207;59.512;18.050;2022-09-16T07:56:40;1.70;;;1.60;;
22080;SDS011;11207;59.512;18.050;2022-09-16T07:59:09;1.50;;;1.40;;
22080;SDS011;11207;59.512;18.050;2022-09-16T08:01:37;1.50;;;1.40;;
22080;SDS011;11207;59.512;18.050;2022-09-16T08:04:03;3.50;;;1.73;;
22080;SDS011;11207;59.512;18.050;2022-09-16T08:06:29;1.67;;;1.57;;
22080;SDS011;11207;59.512;18.050;2022-09-16T08:08:57;1.63;;;1.53;;
22080;SDS011;11207;59.512;18.050;2022-09-16T08:11:25;1.70;;;1.60;;
22080;SDS011;11207;59.512;18.050;2022-09-16T08:13:51;1.60;;;1.50;;
22080;SDS011;11207;59.512;18.050;2022-09-16T08:16:18;1.50;;;1.40;;
22080;SDS011;11207;59.512;18.050;2022-09-16T08:18:48;3.20;;;1.80;;
22080;SDS011;11207;59.512;18.050;2022-09-16T08:21:16;1.97;;;1.87;;
22080;SDS011;11207;59.512;18.050;2022-09-16T08:23:44;1.70;;;1.60;;
22080;SDS011;11207;59.512;18.050;2022-09-16T08:26:11;1.50;;;1.40;;
22080;SDS011;11207;59.512;18.050;2022-09-16T08:28:38;1.60;;;1.50;;
22080;SDS011;11207;59.512;18.050;2022-09-16T08:31:06;1.50;;;1.40;;
22080;SDS011;11207;59.512;18.050;2022-09-16T08:33:32;1.70;;;1.50;;
22080;SDS011;11207;59.512;18.050;2022-09-16T08:36:02;1.60;;;1.50;;
22080;SDS011;11207;59.512;18.050;2022-09-16T08:38:29;2.30;;;1.60;;
22080;SDS011;11207;59.512;18.050;2022-09-16T08:41:40;1.60;;;1.50;;
22080;SDS011;11207;59.512;18.050;2022-09-16T08:49:39;1.30;;;1.30;;
22080;SDS011;11207;59.512;18.050;2022-09-16T08:57:39;1.50;;;1.40;;
22080;SDS011;11207;59.512;18.050;2022-09-16T09:00:11;1.20;;;1.20;;
22080;SDS011;11207;59.512;18.050;2022-09-16T09:08:08;1.43;;;1.33;;
22080;SDS011;11207;59.512;18.050;2022-09-16T09:10:48;1.50;;;1.40;;
22080;SDS011;11207;59.512;18.050;2022-09-16T09:19:08;1.47;;;1.47;;
22080;SDS011;11207;59.512;18.050;2022-09-16T09:27:44;1.30;;;1.30;;
22080;SDS011;11207;59.512;18.050;2022-09-16T09:30:24;1.50;;;1.40;;
22080;SDS011;11207;59.512;18.050;2022-09-16T09:38:41;1.50;;;1.40;;
22080;SDS011;11207;59.512;18.050;2022-09-16T09:41:47;1.30;;;1.30;;
22080;SDS011;11207;59.512;18.050;2022-09-16T09:47:00;1.10;;;1.10;;
22080;SDS011;11207;59.512;18.050;2022-09-16T09:49:34;2.20;;;1.43;;
22080;SDS011;11207;59.512;18.050;2022-09-16T09:54:48;1.53;;;1.43;;
22080;SDS011;11207;59.512;18.050;2022-09-16T10:02:42;1.47;;;1.37;;
22080;SDS011;11207;59.512;18.050;2022-09-16T10:05:20;1.20;;;1.10;;
22080;SDS011;11207;59.512;18.050;2022-09-16T10:07:46;3.00;;;1.20;;
22080;SDS011;11207;59.512;18.050;2022-09-16T10:10:16;1.30;;;1.20;;
22080;SDS011;11207;59.512;18.050;2022-09-16T10:12:46;1.10;;;1.10;;
22080;SDS011;11207;59.512;18.050;2022-09-16T10:15:27;1.20;;;1.20;;
22080;SDS011;11207;59.512;18.050;2022-09-16T10:17:54;2.70;;;1.20;;
22080;SDS011;11207;59.512;18.050;2022-09-16T10:20:30;1.47;;;1.30;;
22080;SDS011;11207;59.512;18.050;2022-09-16T10:22:59;1.43;;;1.40;;
22080;SDS011;11207;59.512;18.050;2022-09-16T10:25:36;1.10;;;1.10;;
22080;SDS011;11207;59.512;18.050;2022-09-16T10:28:03;2.20;;;1.33;;
22080;SDS011;11207;59.512;18.050;2022-09-16T10:30:47;1.10;;;1.10;;
22080;SDS011;11207;59.512;18.050;2022-09-16T10:35:50;1.53;;;1.20;;
22080;SDS011;11207;59.512;18.050;2022-09-16T10:38:22;1.10;;;1.10;;
22080;SDS011;11207;59.512;18.050;2022-09-16T10:40:54;0.90;;;0.90;;
22080;SDS011;11207;59.512;18.050;2022-09-16T10:43:25;0.90;;;0.90;;
22080;SDS011;11207;59.512;18.050;2022-09-16T10:45:53;1.13;;;1.03;;
22080;SDS011;11207;59.512;18.050;2022-09-16T10:48:25;0.93;;;0.90;;
22080;SDS011;11207;59.512;18.050;2022-09-16T10:53:26;0.93;;;0.90;;
22080;SDS011;11207;59.512;18.050;2022-09-16T10:55:58;1.67;;;1.03;;
22080;SDS011;11207;59.512;18.050;2022-09-16T10:58:26;1.10;;;1.00;;
22080;SDS011;11207;59.512;18.050;2022-09-16T11:13:11;2.27;;;0.80;;
22080;SDS011;11207;59.512;18.050;2022-09-16T11:15:31;0.80;;;0.80;;
22080;SDS011;11207;59.512;18.050;2022-09-16T11:21:21;0.90;;;0.90;;
22080;SDS011;11207;59.512;18.050;2022-09-16T11:24:19;1.10;;;1.00;;
22080;SDS011;11207;59.512;18.050;2022-09-16T11:29:51;2.10;;;0.90;;
22080;SDS011;11207;59.512;18.050;2022-09-16T11:40:59;2.17;;;1.30;;
22080;SDS011;11207;59.512;18.050;2022-09-16T11:49:29;1.50;;;1.23;;
22080;SDS011;11207;59.512;18.050;2022-09-16T11:57:39;1.30;;;1.20;;
22080;SDS011;11207;59.512;18.050;2022-09-16T12:00:09;1.10;;;1.10;;
22080;SDS011;11207;59.512;18.050;2022-09-16T12:05:34;1.00;;;0.90;;
22080;SDS011;11207;59.512;18.050;2022-09-16T12:08:24;1.13;;;1.00;;
22080;SDS011;11207;59.512;18.050;2022-09-16T12:11:08;3.10;;;1.03;;
22080;SDS011;11207;59.512;18.050;2022-09-16T12:13:57;1.10;;;1.00;;
22080;SDS011;11207;59.512;18.050;2022-09-16T12:16:45;2.10;;;1.10;;
22080;SDS011;11207;59.512;18.050;2022-09-16T12:19:35;0.90;;;0.90;;
22080;SDS011;11207;59.512;18.050;2022-09-16T12:22:08;1.17;;;1.07;;
22080;SDS011;11207;59.512;18.050;2022-09-16T12:24:44;2.10;;;0.90;;
22080;SDS011;11207;59.512;18.050;2022-09-16T12:30:04;0.90;;;0.90;;
22080;SDS011;11207;59.512;18.050;2022-09-16T12:35:36;1.00;;;1.00;;
22080;SDS011;11207;59.512;18.050;2022-09-16T12:38:07;0.90;;;0.90;;
22080;SDS011;11207;59.512;18.050;2022-09-16T12:46:35;1.00;;;1.00;;
22080;SDS011;11207;59.512;18.050;2022-09-16T13:00:14;1.17;;;1.07;;
22080;SDS011;11207;59.512;18.050;2022-09-16T13:03:15;1.57;;;1.10;;
22080;SDS011;11207;59.512;18.050;2022-09-16T13:05:45;1.53;;;1.13;;
22080;SDS011;11207;59.512;18.050;2022-09-16T13:08:20;1.03;;;1.00;;
22080;SDS011;11207;59.512;18.050;2022-09-16T13:11:22;1.10;;;1.00;;
22080;SDS011;11207;59.512;18.050;2022-09-16T13:13:56;1.00;;;1.00;;
22080;SDS011;11207;59.512;18.050;2022-09-16T13:16:27;1.00;;;1.00;;
22080;SDS011;11207;59.512;18.050;2022-09-16T13:22:16;1.07;;;1.07;;
22080;SDS011;11207;59.512;18.050;2022-09-16T13:27:58;2.13;;;1.40;;
22080;SDS011;11207;59.512;18.050;2022-09-16T13:30:46;1.63;;;1.20;;
22080;SDS011;11207;59.512;18.050;2022-09-16T13:35:41;1.00;;;1.00;;
22080;SDS011;11207;59.512;18.050;2022-09-16T13:40:53;1.53;;;1.20;;
22080;SDS011;11207;59.512;18.050;2022-09-16T13:43:54;1.73;;;1.13;;
22080;SDS011;11207;59.512;18.050;2022-09-16T13:46:29;2.77;;;1.20;;
22080;SDS011;11207;59.512;18.050;2022-09-16T13:49:11;2.47;;;1.43;;
22080;SDS011;11207;59.512;18.050;2022-09-16T13:51:43;1.10;;;1.00;;
22080;SDS011;11207;59.512;18.050;2022-09-16T14:11:00;1.50;;;1.40;;
22080;SDS011;11207;59.512;18.050;2022-09-16T14:13:34;2.70;;;2.50;;
22080;SDS011;11207;59.512;18.050;2022-09-16T14:16:08;2.37;;;2.20;;
22080;SDS011;11207;59.512;18.050;2022-09-16T14:18:41;5.20;;;4.70;;
22080;SDS011;11207;59.512;18.050;2022-09-16T14:21:18;3.90;;;3.60;;
22080;SDS011;11207;59.512;18.050;2022-09-16T14:23:45;1.80;;;1.70;;
22080;SDS011;11207;59.512;18.050;2022-09-16T14:26:11;1.60;;;1.60;;
22080;SDS011;11207;59.512;18.050;2022-09-16T14:28:45;3.07;;;2.73;;
22080;SDS011;11207;59.512;18.050;2022-09-16T14:31:18;6.07;;;4.40;;
22080;SDS011;11207;59.512;18.050;2022-09-16T14:33:56;2.37;;;2.17;;
22080;SDS011;11207;59.512;18.050;2022-09-16T14:36:26;19.57;;;12.93;;
22080;SDS011;11207;59.512;18.050;2022-09-16T14:38:55;9.00;;;6.83;;
22080;SDS011;11207;59.512;18.050;2022-09-16T14:44:32;9.80;;;8.37;;
22080;SDS011;11207;59.512;18.050;2022-09-16T14:47:26;10.00;;;8.10;;
22080;SDS011;11207;59.512;18.050;2022-09-16T14:50:00;4.57;;;2.87;;
22080;SDS011;11207;59.512;18.050;2022-09-16T14:52:32;2.00;;;1.90;;
22080;SDS011;11207;59.512;18.050;2022-09-16T14:54:59;1.90;;;1.80;;
22080;SDS011;11207;59.512;18.050;2022-09-16T14:57:26;4.30;;;3.70;;
22080;SDS011;11207;59.512;18.050;2022-09-16T14:59:57;11.73;;;9.80;;
22080;SDS011;11207;59.512;18.050;2022-09-16T15:02:35;34.13;;;24.57;;
22080;SDS011;11207;59.512;18.050;2022-09-16T15:07:32;15.83;;;11.43;;
22080;SDS011;11207;59.512;18.050;2022-09-16T15:10:05;14.00;;;10.37;;
22080;SDS011;11207;59.512;18.050;2022-09-16T15:12:49;3.93;;;3.53;;
22080;SDS011;11207;59.512;18.050;2022-09-16T15:15:30;12.73;;;9.63;;
22080;SDS011;11207;59.512;18.050;2022-09-16T15:18:11;8.37;;;6.93;;
22080;SDS011;11207;59.512;18.050;2022-09-16T15:20:47;10.07;;;7.27;;
22080;SDS011;11207;59.512;18.050;2022-09-16T15:23:18;3.93;;;2.80;;
22080;SDS011;11207;59.512;18.050;2022-09-16T15:25:58;3.37;;;2.07;;
22080;SDS011;11207;59.512;18.050;2022-09-16T15:28:51;2.40;;;2.20;;
22080;SDS011;11207;59.512;18.050;2022-09-16T15:31:38;2.37;;;2.17;;
22080;SDS011;11207;59.512;18.050;2022-09-16T15:36:56;2.60;;;2.00;;
22080;SDS011;11207;59.512;18.050;2022-09-16T15:42:07;1.20;;;1.20;;
22080;SDS011;11207;59.512;18.050;2022-09-16T15:44:36;1.30;;;1.30;;
22080;SDS011;11207;59.512;18.050;2022-09-16T15:47:14;1.10;;;1.10;;
22080;SDS011;11207;59.512;18.050;2022-09-16T15:52:49;2.20;;;1.30;;
22080;SDS011;11207;59.512;18.050;2022-09-16T16:01:15;2.73;;;1.90;;
22080;SDS011;11207;59.512;18.050;2022-09-16T16:06:17;2.67;;;2.57;;
22080;SDS011;11207;59.512;18.050;2022-09-16T16:11:12;1.70;;;1.60;;
22080;SDS011;11207;59.512;18.050;2022-09-16T16:13:42;2.90;;;2.70;;
22080;SDS011;11207;59.512;18.050;2022-09-16T16:16:08;3.50;;;3.20;;
22080;SDS011;11207;59.512;18.050;2022-09-16T16:18:38;2.40;;;2.30;;
22080;SDS011;11207;59.512;18.050;2022-09-16T16:21:07;2.57;;;2.37;;
22080;SDS011;11207;59.512;18.050;2022-09-16T16:23:34;1.60;;;1.50;;
22080;SDS011;11207;59.512;18.050;2022-09-16T16:26:05;1.40;;;1.30;;
22080;SDS011;11207;59.512;18.050;2022-09-16T16:28:32;2.60;;;1.50;;
22080;SDS011;11207;59.512;18.050;2022-09-16T16:31:08;2.00;;;1.90;;
22080;SDS011;11207;59.512;18.050;2022-09-16T16:33:45;2.17;;;2.07;;
22080;SDS011;11207;59.512;18.050;2022-09-16T16:36:15;3.10;;;2.90;;
22080;SDS011;11207;59.512;18.050;2022-09-16T16:38:42;2.57;;;2.37;;
22080;SDS011;11207;59.512;18.050;2022-09-16T16:41:09;1.73;;;1.63;;
22080;SDS011;11207;59.512;18.050;2022-09-16T16:43:36;1.87;;;1.60;;
22080;SDS011;11207;59.512;18.050;2022-09-16T16:46:02;1.40;;;1.40;;
22080;SDS011;11207;59.512;18.050;2022-09-16T16:48:28;2.67;;;1.40;;
22080;SDS011;11207;59.512;18.050;2022-09-16T16:51:00;1.30;;;1.30;;
22080;SDS011;11207;59.512;18.050;2022-09-16T16:53:28;2.10;;;2.00;;
22080;SDS011;11207;59.512;18.050;2022-09-16T16:56:05;3.00;;;1.60;;
22080;SDS011;11207;59.512;18.050;2022-09-16T16:58:33;1.60;;;1.50;;
22080;SDS011;11207;59.512;18.050;2022-09-16T17:01:08;2.27;;;1.73;;
22080;SDS011;11207;59.512;18.050;2022-09-16T17:03:35;2.10;;;2.00;;
22080;SDS011;11207;59.512;18.050;2022-09-16T17:06:01;2.03;;;1.80;;
22080;SDS011;11207;59.512;18.050;2022-09-16T17:08:26;1.80;;;1.70;;
22080;SDS011;11207;59.512;18.050;2022-09-16T17:11:14;1.50;;;1.40;;
22080;SDS011;11207;59.512;18.050;2022-09-16T17:13:43;2.13;;;1.60;;
22080;SDS011;11207;59.512;18.050;2022-09-16T17:16:11;1.70;;;1.60;;
22080;SDS011;11207;59.512;18.050;2022-09-16T17:18:39;3.70;;;1.37;;
22080;SDS011;11207;59.512;18.050;2022-09-16T17:21:07;7.07;;;1.80;;
22080;SDS011;11207;59.512;18.050;2022-09-16T17:23:34;1.50;;;1.40;;
22080;SDS011;11207;59.512;18.050;2022-09-16T17:26:01;1.93;;;1.60;;
22080;SDS011;11207;59.512;18.050;2022-09-16T17:28:28;1.53;;;1.43;;
22080;SDS011;11207;59.512;18.050;2022-09-16T17:30:54;1.70;;;1.60;;
22080;SDS011;11207;59.512;18.050;2022-09-16T17:33:20;1.80;;;1.70;;
22080;SDS011;11207;59.512;18.050;2022-09-16T17:35:46;1.60;;;1.50;;
22080;SDS011;11207;59.512;18.050;2022-09-16T17:38:12;1.80;;;1.70;;
22080;SDS011;11207;59.512;18.050;2022-09-16T17:40:38;1.60;;;1.50;;
22080;SDS011;11207;59.512;18.050;2022-09-16T17:43:04;1.60;;;1.50;;
22080;SDS011;11207;59.512;18.050;2022-09-16T17:45:33;2.07;;;1.67;;
22080;SDS011;11207;59.512;18.050;2022-09-16T17:47:59;1.70;;;1.60;;
22080;SDS011;11207;59.512;18.050;2022-09-16T17:50:25;1.80;;;1.70;;
22080;SDS011;11207;59.512;18.050;2022-09-16T17:52:52;1.90;;;1.80;;
22080;SDS011;11207;59.512;18.050;2022-09-16T17:55:17;1.70;;;1.60;;
22080;SDS011;11207;59.512;18.050;2022-09-16T17:57:43;1.70;;;1.60;;
22080;SDS011;11207;59.512;18.050;2022-09-16T18:00:09;1.93;;;1.83;;
22080;SDS011;11207;59.512;18.050;2022-09-16T18:02:35;5.33;;;1.77;;
22080;SDS011;11207;59.512;18.050;2022-09-16T18:05:01;1.60;;;1.50;;
22080;SDS011;11207;59.512;18.050;2022-09-16T18:07:27;1.70;;;1.60;;
22080;SDS011;11207;59.512;18.050;2022-09-16T18:09:53;2.43;;;1.80;;
22080;SDS011;11207;59.512;18.050;2022-09-16T18:12:21;2.23;;;1.90;;
22080;SDS011;11207;59.512;18.050;2022-09-16T18:14:47;2.33;;;1.80;;
22080;SDS011;11207;59.512;18.050;2022-09-16T18:17:13;3.70;;;2.00;;
22080;SDS011;11207;59.512;18.050;2022-09-16T18:19:38;2.10;;;2.00;;
22080;SDS011;11207;59.512;18.050;2022-09-16T18:22:04;2.10;;;2.00;;
22080;SDS011;11207;59.512;18.050;2022-09-16T18:24:30;1.90;;;1.80;;